sensor_id;sensor_type;location;lat;lon;timestamp;pressure;altitude;pressure_sealevel;temperature;humidity
77017;BME280;65949;53.132;17.930;2023-04-25T00:04:29;99831.61;;;11.42;80.18
77017;BME280;65949;53.132;17.930;2023-04-25T00:06:56;99828.95;;;11.38;80.09
77017;BME280;65949;53.132;17.930;2023-04-25T00:09:22;99827.86;;;11.32;80.00
77017;BME280;65949;53.132;17.930;2023-04-25T00:11:49;99828.45;;;11.30;80.19
77017;BME280;65949;53.132;17.930;2023-04-25T00:14:15;99825.61;;;11.29;79.90
77017;BME280;65949;53.132;17.930;2023-04-25T00:16:43;99826.05;;;11.25;79.97
77017;BME280;65949;53.132;17.930;2023-04-25T00:19:10;99828.20;;;11.24;80.00
77017;BME280;65949;53.132;17.930;2023-04-25T00:21:37;99827.81;;;11.21;79.32
77017;BME280;65949;53.132;17.930;2023-04-25T00:24:07;99829.59;;;11.15;79.02
77017;BME280;65949;53.132;17.930;2023-04-25T00:26:34;99829.91;;;11.10;79.01
77017;BME280;65949;53.132;17.930;2023-04-25T00:29:02;99833.91;;;11.05;78.78
77017;BME280;65949;53.132;17.930;2023-04-25T00:31:29;99832.95;;;11.01;78.48
77017;BME280;65949;53.132;17.930;2023-04-25T00:33:56;99836.42;;;10.97;78.40
77017;BME280;65949;53.132;17.930;2023-04-25T00:36:23;99843.80;;;10.89;77.96
77017;BME280;65949;53.132;17.930;2023-04-25T00:38:49;99844.90;;;10.83;77.45
77017;BME280;65949;53.132;17.930;2023-04-25T00:41:16;99842.95;;;10.77;76.92
77017;BME280;65949;53.132;17.930;2023-04-25T00:43:44;99845.17;;;10.72;76.51
77017;BME280;65949;53.132;17.930;2023-04-25T00:46:11;99851.03;;;10.69;76.56
77017;BME280;65949;53.132;17.930;2023-04-25T00:48:38;99848.94;;;10.65;76.52
77017;BME280;65949;53.132;17.930;2023-04-25T00:51:05;99849.17;;;10.60;76.46
77017;BME280;65949;53.132;17.930;2023-04-25T00:53:32;99854.48;;;10.54;76.74
77017;BME280;65949;53.132;17.930;2023-04-25T00:55:59;99856.75;;;10.50;77.20
77017;BME280;65949;53.132;17.930;2023-04-25T00:58:26;99856.50;;;10.46;77.45
77017;BME280;65949;53.132;17.930;2023-04-25T01:00:53;99856.52;;;10.44;77.40
77017;BME280;65949;53.132;17.930;2023-04-25T01:03:20;99855.70;;;10.41;77.67
77017;BME280;65949;53.132;17.930;2023-04-25T01:05:47;99859.73;;;10.38;77.40
77017;BME280;65949;53.132;17.930;2023-04-25T01:08:15;99858.30;;;10.35;77.24
77017;BME280;65949;53.132;17.930;2023-04-25T01:10:41;99861.96;;;10.31;77.13
77017;BME280;65949;53.132;17.930;2023-04-25T01:13:08;99858.37;;;10.30;76.85
77017;BME280;65949;53.132;17.930;2023-04-25T01:15:35;99856.58;;;10.25;76.70
77017;BME280;65949;53.132;17.930;2023-04-25T01:18:04;99857.13;;;10.19;76.72
77017;BME280;65949;53.132;17.930;2023-04-25T01:20:32;99861.27;;;10.16;76.51
77017;BME280;65949;53.132;17.930;2023-04-25T01:22:59;99861.01;;;10.13;76.80
77017;BME280;65949;53.132;17.930;2023-04-25T01:25:26;99858.89;;;10.10;76.58
77017;BME280;65949;53.132;17.930;2023-04-25T01:27:54;99862.55;;;10.07;76.52
77017;BME280;65949;53.132;17.930;2023-04-25T01:30:21;99863.64;;;10.03;76.58
77017;BME280;65949;53.132;17.930;2023-04-25T01:32:48;99864.89;;;9.99;76.57
77017;BME280;65949;53.132;17.930;2023-04-25T01:35:15;99864.13;;;9.97;76.88
77017;BME280;65949;53.132;17.930;2023-04-25T01:37:43;99864.98;;;9.94;76.66
77017;BME280;65949;53.132;17.930;2023-04-25T01:40:12;99863.08;;;9.87;76.68
77017;BME280;65949;53.132;17.930;2023-04-25T01:42:42;99868.45;;;9.82;76.85
77017;BME280;65949;53.132;17.930;2023-04-25T01:45:11;99869.56;;;9.77;76.97
77017;BME280;65949;53.132;17.930;2023-04-25T01:47:39;99871.60;;;9.74;77.12
77017;BME280;65949;53.132;17.930;2023-04-25T01:50:07;99872.13;;;9.71;76.87
77017;BME280;65949;53.132;17.930;2023-04-25T01:52:35;99876.00;;;9.66;76.91
77017;BME280;65949;53.132;17.930;2023-04-25T01:55:02;99879.55;;;9.62;77.08
77017;BME280;65949;53.132;17.930;2023-04-25T01:57:31;99882.63;;;9.59;77.34
77017;BME280;65949;53.132;17.930;2023-04-25T02:00:00;99882.42;;;9.55;77.34
77017;BME280;65949;53.132;17.930;2023-04-25T02:02:39;99881.33;;;9.51;77.67
77017;BME280;65949;53.132;17.930;2023-04-25T02:05:11;99882.13;;;9.47;77.39
77017;BME280;65949;53.132;17.930;2023-04-25T02:07:39;99885.40;;;9.47;77.48
77017;BME280;65949;53.132;17.930;2023-04-25T02:10:07;99884.77;;;9.48;77.70
77017;BME280;65949;53.132;17.930;2023-04-25T02:12:38;99886.12;;;9.49;77.69
77017;BME280;65949;53.132;17.930;2023-04-25T02:15:25;99893.16;;;9.44;77.59
77017;BME280;65949;53.132;17.930;2023-04-25T02:17:56;99892.02;;;9.40;77.53
77017;BME280;65949;53.132;17.930;2023-04-25T02:20:24;99897.34;;;9.36;77.58
77017;BME280;65949;53.132;17.930;2023-04-25T02:22:51;99900.45;;;9.31;77.55
77017;BME280;65949;53.132;17.930;2023-04-25T02:25:19;99898.59;;;9.25;77.56
77017;BME280;65949;53.132;17.930;2023-04-25T02:27:47;99896.04;;;9.18;77.83
77017;BME280;65949;53.132;17.930;2023-04-25T02:30:14;99895.89;;;9.09;77.55
77017;BME280;65949;53.132;17.930;2023-04-25T02:32:41;99898.80;;;9.06;77.62
77017;BME280;65949;53.132;17.930;2023-04-25T02:35:09;99895.68;;;9.01;77.39
77017;BME280;65949;53.132;17.930;2023-04-25T02:37:38;99897.76;;;8.98;77.62
77017;BME280;65949;53.132;17.930;2023-04-25T02:40:07;99899.78;;;8.93;77.45
77017;BME280;65949;53.132;17.930;2023-04-25T02:42:35;99896.77;;;8.88;77.25
77017;BME280;65949;53.132;17.930;2023-04-25T02:45:02;99900.66;;;8.81;77.43
77017;BME280;65949;53.132;17.930;2023-04-25T02:47:30;99903.71;;;8.77;77.20
77017;BME280;65949;53.132;17.930;2023-04-25T02:49:57;99900.84;;;8.76;77.44
77017;BME280;65949;53.132;17.930;2023-04-25T02:52:24;99899.14;;;8.76;77.47
77017;BME280;65949;53.132;17.930;2023-04-25T02:54:57;99902.30;;;8.76;77.37
77017;BME280;65949;53.132;17.930;2023-04-25T02:57:24;99902.05;;;8.73;77.31
77017;BME280;65949;53.132;17.930;2023-04-25T02:59:51;99903.13;;;8.68;77.20
77017;BME280;65949;53.132;17.930;2023-04-25T03:02:18;99903.58;;;8.58;77.01
77017;BME280;65949;53.132;17.930;2023-04-25T03:04:44;99905.44;;;8.49;77.09
77017;BME280;65949;53.132;17.930;2023-04-25T03:07:11;99905.58;;;8.45;77.23
77017;BME280;65949;53.132;17.930;2023-04-25T03:09:38;99904.89;;;8.44;77.21
77017;BME280;65949;53.132;17.930;2023-04-25T03:12:04;99901.61;;;8.41;77.17
77017;BME280;65949;53.132;17.930;2023-04-25T03:14:32;99900.51;;;8.35;76.97
77017;BME280;65949;53.132;17.930;2023-04-25T03:16:59;99901.95;;;8.30;77.33
77017;BME280;65949;53.132;17.930;2023-04-25T03:19:26;99903.52;;;8.21;76.86
77017;BME280;65949;53.132;17.930;2023-04-25T03:21:52;99905.80;;;8.14;76.97
77017;BME280;65949;53.132;17.930;2023-04-25T03:24:20;99903.23;;;8.08;77.26
77017;BME280;65949;53.132;17.930;2023-04-25T03:26:47;99902.39;;;8.06;77.13
77017;BME280;65949;53.132;17.930;2023-04-25T03:29:13;99902.53;;;8.02;77.20
77017;BME280;65949;53.132;17.930;2023-04-25T03:31:40;99905.63;;;7.98;77.03
77017;BME280;65949;53.132;17.930;2023-04-25T03:34:07;99905.91;;;7.92;77.27
77017;BME280;65949;53.132;17.930;2023-04-25T03:36:33;99908.48;;;7.87;77.47
77017;BME280;65949;53.132;17.930;2023-04-25T03:39:00;99911.42;;;7.85;77.28
77017;BME280;65949;53.132;17.930;2023-04-25T03:41:27;99911.73;;;7.85;77.35
77017;BME280;65949;53.132;17.930;2023-04-25T03:44:00;99915.79;;;7.83;77.26
77017;BME280;65949;53.132;17.930;2023-04-25T03:46:27;99917.54;;;7.85;77.57
77017;BME280;65949;53.132;17.930;2023-04-25T03:48:54;99918.68;;;7.85;77.29
77017;BME280;65949;53.132;17.930;2023-04-25T03:51:23;99922.43;;;7.86;77.17
77017;BME280;65949;53.132;17.930;2023-04-25T03:53:51;99927.85;;;7.90;77.02
77017;BME280;65949;53.132;17.930;2023-04-25T03:56:36;99931.52;;;7.96;77.12
77017;BME280;65949;53.132;17.930;2023-04-25T03:59:10;99933.82;;;7.99;76.62
77017;BME280;65949;53.132;17.930;2023-04-25T04:01:37;99939.05;;;8.00;76.67
77017;BME280;65949;53.132;17.930;2023-04-25T04:04:04;99941.29;;;7.99;76.45
77017;BME280;65949;53.132;17.930;2023-04-25T04:06:31;99940.23;;;7.96;76.45
77017;BME280;65949;53.132;17.930;2023-04-25T04:09:18;99944.07;;;7.95;76.30
77017;BME280;65949;53.132;17.930;2023-04-25T04:11:46;99944.54;;;7.96;75.79
77017;BME280;65949;53.132;17.930;2023-04-25T04:14:13;99946.02;;;7.93;75.88
77017;BME280;65949;53.132;17.930;2023-04-25T04:16:44;99948.52;;;7.92;75.97
77017;BME280;65949;53.132;17.930;2023-04-25T04:19:11;99955.22;;;7.94;75.95
77017;BME280;65949;53.132;17.930;2023-04-25T04:21:40;99958.46;;;7.90;75.81
77017;BME280;65949;53.132;17.930;2023-04-25T04:24:07;99960.71;;;7.85;76.06
77017;BME280;65949;53.132;17.930;2023-04-25T04:26:46;99957.45;;;7.85;76.07
77017;BME280;65949;53.132;17.930;2023-04-25T04:29:37;99960.96;;;7.91;75.65
77017;BME280;65949;53.132;17.930;2023-04-25T04:32:10;99963.16;;;7.94;76.05
77017;BME280;65949;53.132;17.930;2023-04-25T04:34:37;99970.17;;;7.97;75.54
77017;BME280;65949;53.132;17.930;2023-04-25T04:37:04;99968.67;;;7.97;75.18
77017;BME280;65949;53.132;17.930;2023-04-25T04:39:31;99972.77;;;7.97;75.59
77017;BME280;65949;53.132;17.930;2023-04-25T04:42:06;99972.80;;;8.01;75.77
77017;BME280;65949;53.132;17.930;2023-04-25T04:44:57;99976.74;;;8.02;74.72
77017;BME280;65949;53.132;17.930;2023-04-25T04:47:44;99975.23;;;8.02;75.42
77017;BME280;65949;53.132;17.930;2023-04-25T04:50:16;99974.56;;;8.03;75.01
77017;BME280;65949;53.132;17.930;2023-04-25T04:53:02;99973.01;;;8.03;74.54
77017;BME280;65949;53.132;17.930;2023-04-25T04:55:59;99974.48;;;8.04;75.13
77017;BME280;65949;53.132;17.930;2023-04-25T04:58:44;99977.15;;;8.09;75.02
77017;BME280;65949;53.132;17.930;2023-04-25T05:01:31;99981.59;;;8.13;74.70
77017;BME280;65949;53.132;17.930;2023-04-25T05:04:15;99980.40;;;8.14;74.49
77017;BME280;65949;53.132;17.930;2023-04-25T05:07:08;99981.51;;;8.17;74.53
77017;BME280;65949;53.132;17.930;2023-04-25T05:09:53;99982.07;;;8.18;74.57
77017;BME280;65949;53.132;17.930;2023-04-25T05:12:35;99979.27;;;8.17;74.61
77017;BME280;65949;53.132;17.930;2023-04-25T05:15:08;99979.58;;;8.17;73.60
77017;BME280;65949;53.132;17.930;2023-04-25T05:17:54;99980.67;;;8.10;74.22
77017;BME280;65949;53.132;17.930;2023-04-25T05:20:27;99980.58;;;8.11;73.75
77017;BME280;65949;53.132;17.930;2023-04-25T05:23:12;99987.16;;;8.16;73.97
77017;BME280;65949;53.132;17.930;2023-04-25T05:25:59;99985.19;;;8.19;73.62
77017;BME280;65949;53.132;17.930;2023-04-25T05:28:52;99984.96;;;8.28;73.46
77017;BME280;65949;53.132;17.930;2023-04-25T05:31:44;99982.08;;;8.36;73.05
77017;BME280;65949;53.132;17.930;2023-04-25T05:34:14;99980.02;;;8.37;73.03
77017;BME280;65949;53.132;17.930;2023-04-25T05:36:47;99984.34;;;8.43;73.15
77017;BME280;65949;53.132;17.930;2023-04-25T05:39:16;99986.15;;;8.53;72.72
77017;BME280;65949;53.132;17.930;2023-04-25T05:42:04;99991.06;;;8.62;72.28
77017;BME280;65949;53.132;17.930;2023-04-25T05:44:56;99988.39;;;8.67;72.12
77017;BME280;65949;53.132;17.930;2023-04-25T05:47:34;99990.30;;;8.77;71.87
77017;BME280;65949;53.132;17.930;2023-04-25T05:50:12;99987.67;;;8.99;71.43
77017;BME280;65949;53.132;17.930;2023-04-25T05:53:04;99987.91;;;9.21;70.16
77017;BME280;65949;53.132;17.930;2023-04-25T05:55:43;99990.69;;;9.45;70.06
77017;BME280;65949;53.132;17.930;2023-04-25T05:58:25;99992.66;;;9.60;70.29
77017;BME280;65949;53.132;17.930;2023-04-25T06:00:51;99993.97;;;9.51;69.67
77017;BME280;65949;53.132;17.930;2023-04-25T06:03:18;99993.87;;;9.41;70.12
77017;BME280;65949;53.132;17.930;2023-04-25T06:05:46;99994.02;;;9.35;69.59
77017;BME280;65949;53.132;17.930;2023-04-25T06:08:12;99992.61;;;9.31;70.25
77017;BME280;65949;53.132;17.930;2023-04-25T06:10:39;99992.77;;;9.38;69.90
77017;BME280;65949;53.132;17.930;2023-04-25T06:13:06;99989.80;;;9.33;69.10
77017;BME280;65949;53.132;17.930;2023-04-25T06:15:33;99995.41;;;9.27;69.50
77017;BME280;65949;53.132;17.930;2023-04-25T06:18:01;99995.93;;;9.21;69.30
77017;BME280;65949;53.132;17.930;2023-04-25T06:20:27;99994.52;;;9.20;69.27
77017;BME280;65949;53.132;17.930;2023-04-25T06:22:56;99991.25;;;9.28;69.67
77017;BME280;65949;53.132;17.930;2023-04-25T06:25:46;99998.55;;;9.47;68.90
77017;BME280;65949;53.132;17.930;2023-04-25T06:28:13;99996.41;;;9.54;68.57
77017;BME280;65949;53.132;17.930;2023-04-25T06:30:40;100000.15;;;9.64;68.61
77017;BME280;65949;53.132;17.930;2023-04-25T06:33:09;99998.52;;;9.78;68.13
77017;BME280;65949;53.132;17.930;2023-04-25T06:35:36;99995.02;;;9.95;68.41
77017;BME280;65949;53.132;17.930;2023-04-25T06:38:04;99993.38;;;10.17;67.66
77017;BME280;65949;53.132;17.930;2023-04-25T06:40:30;99988.50;;;10.32;66.92
77017;BME280;65949;53.132;17.930;2023-04-25T06:42:57;99985.97;;;10.39;66.57
77017;BME280;65949;53.132;17.930;2023-04-25T06:45:43;99982.20;;;10.31;66.62
77017;BME280;65949;53.132;17.930;2023-04-25T06:48:10;99990.13;;;10.38;66.01
77017;BME280;65949;53.132;17.930;2023-04-25T06:50:36;99984.70;;;10.43;66.08
77017;BME280;65949;53.132;17.930;2023-04-25T06:53:03;99983.67;;;10.54;65.02
77017;BME280;65949;53.132;17.930;2023-04-25T06:55:30;99982.34;;;10.67;65.38
77017;BME280;65949;53.132;17.930;2023-04-25T06:58:11;99982.05;;;10.73;64.70
77017;BME280;65949;53.132;17.930;2023-04-25T07:00:50;99982.34;;;10.69;65.01
77017;BME280;65949;53.132;17.930;2023-04-25T07:03:17;99984.48;;;10.80;65.07
77017;BME280;65949;53.132;17.930;2023-04-25T07:05:44;99983.29;;;11.03;64.31
77017;BME280;65949;53.132;17.930;2023-04-25T07:08:12;99978.48;;;11.12;63.51
77017;BME280;65949;53.132;17.930;2023-04-25T07:10:39;99981.19;;;11.13;63.33
77017;BME280;65949;53.132;17.930;2023-04-25T07:13:06;99981.30;;;11.13;63.25
77017;BME280;65949;53.132;17.930;2023-04-25T07:15:33;99982.98;;;11.09;62.83
77017;BME280;65949;53.132;17.930;2023-04-25T07:18:00;99985.91;;;11.17;63.42
77017;BME280;65949;53.132;17.930;2023-04-25T07:20:27;99984.13;;;11.32;62.83
77017;BME280;65949;53.132;17.930;2023-04-25T07:22:54;99988.65;;;11.48;62.06
77017;BME280;65949;53.132;17.930;2023-04-25T07:25:20;99988.65;;;11.54;62.33
77017;BME280;65949;53.132;17.930;2023-04-25T07:27:47;99986.19;;;11.56;62.19
77017;BME280;65949;53.132;17.930;2023-04-25T07:30:17;99989.14;;;11.65;62.13
77017;BME280;65949;53.132;17.930;2023-04-25T07:32:44;99985.34;;;11.63;60.94
77017;BME280;65949;53.132;17.930;2023-04-25T07:35:11;99989.55;;;11.58;61.04
77017;BME280;65949;53.132;17.930;2023-04-25T07:37:38;99992.26;;;11.59;60.52
77017;BME280;65949;53.132;17.930;2023-04-25T07:40:24;99997.51;;;11.57;60.84
77017;BME280;65949;53.132;17.930;2023-04-25T07:42:57;100001.77;;;11.39;60.99
77017;BME280;65949;53.132;17.930;2023-04-25T07:45:30;99998.57;;;11.33;61.48
77017;BME280;65949;53.132;17.930;2023-04-25T07:47:56;100000.91;;;11.34;62.03
77017;BME280;65949;53.132;17.930;2023-04-25T07:50:24;100000.88;;;11.31;62.05
77017;BME280;65949;53.132;17.930;2023-04-25T07:52:51;100001.77;;;11.32;61.85
77017;BME280;65949;53.132;17.930;2023-04-25T07:55:28;100005.73;;;11.32;62.14
77017;BME280;65949;53.132;17.930;2023-04-25T07:58:09;100007.95;;;11.29;61.97
77017;BME280;65949;53.132;17.930;2023-04-25T08:00:37;100008.33;;;11.19;62.55
77017;BME280;65949;53.132;17.930;2023-04-25T08:03:19;100012.34;;;11.19;62.78
77017;BME280;65949;53.132;17.930;2023-04-25T08:05:46;100011.67;;;11.26;62.82
77017;BME280;65949;53.132;17.930;2023-04-25T08:08:13;100011.93;;;11.34;62.41
77017;BME280;65949;53.132;17.930;2023-04-25T08:10:40;100014.40;;;11.32;62.62
77017;BME280;65949;53.132;17.930;2023-04-25T08:13:07;100016.35;;;11.35;62.61
77017;BME280;65949;53.132;17.930;2023-04-25T08:15:34;100013.61;;;11.47;62.54
77017;BME280;65949;53.132;17.930;2023-04-25T08:18:00;100019.79;;;11.58;62.44
77017;BME280;65949;53.132;17.930;2023-04-25T08:20:27;100021.31;;;11.65;61.69
77017;BME280;65949;53.132;17.930;2023-04-25T08:22:55;100020.71;;;11.68;62.14
77017;BME280;65949;53.132;17.930;2023-04-25T08:25:45;100023.51;;;11.82;62.33
77017;BME280;65949;53.132;17.930;2023-04-25T08:28:12;100023.52;;;12.04;61.14
77017;BME280;65949;53.132;17.930;2023-04-25T08:30:39;100021.91;;;12.18;60.97
77017;BME280;65949;53.132;17.930;2023-04-25T08:33:07;100026.30;;;12.24;61.15
77017;BME280;65949;53.132;17.930;2023-04-25T08:36:00;100025.92;;;12.33;60.64
77017;BME280;65949;53.132;17.930;2023-04-25T08:38:27;100024.75;;;12.30;60.67
77017;BME280;65949;53.132;17.930;2023-04-25T08:40:54;100026.79;;;12.31;60.33
77017;BME280;65949;53.132;17.930;2023-04-25T08:43:24;100030.39;;;12.27;60.47
77017;BME280;65949;53.132;17.930;2023-04-25T08:45:52;100031.26;;;12.14;60.31
77017;BME280;65949;53.132;17.930;2023-04-25T08:48:42;100030.73;;;11.99;60.63
77017;BME280;65949;53.132;17.930;2023-04-25T08:51:21;100029.49;;;11.91;60.71
77017;BME280;65949;53.132;17.930;2023-04-25T08:53:52;100027.21;;;11.83;61.16
77017;BME280;65949;53.132;17.930;2023-04-25T08:56:20;100028.56;;;11.90;60.97
77017;BME280;65949;53.132;17.930;2023-04-25T08:58:49;100030.25;;;11.98;60.80
77017;BME280;65949;53.132;17.930;2023-04-25T09:01:19;100032.99;;;12.11;60.70
77017;BME280;65949;53.132;17.930;2023-04-25T09:03:50;100030.68;;;12.19;59.43
77017;BME280;65949;53.132;17.930;2023-04-25T09:06:19;100034.02;;;12.23;59.52
77017;BME280;65949;53.132;17.930;2023-04-25T09:08:46;100039.47;;;12.36;59.54
77017;BME280;65949;53.132;17.930;2023-04-25T09:11:13;100042.58;;;12.49;58.95
77017;BME280;65949;53.132;17.930;2023-04-25T09:13:41;100047.10;;;12.55;58.41
77017;BME280;65949;53.132;17.930;2023-04-25T09:16:11;100046.08;;;12.66;58.45
77017;BME280;65949;53.132;17.930;2023-04-25T09:18:57;100047.77;;;12.74;56.61
77017;BME280;65949;53.132;17.930;2023-04-25T09:21:24;100050.77;;;12.67;57.38
77017;BME280;65949;53.132;17.930;2023-04-25T09:23:51;100050.80;;;12.70;56.86
77017;BME280;65949;53.132;17.930;2023-04-25T09:26:20;100051.35;;;12.67;57.60
77017;BME280;65949;53.132;17.930;2023-04-25T09:28:48;100050.44;;;12.78;57.61
77017;BME280;65949;53.132;17.930;2023-04-25T09:31:23;100048.34;;;12.86;57.42
77017;BME280;65949;53.132;17.930;2023-04-25T09:34:01;100045.25;;;13.08;56.51
77017;BME280;65949;53.132;17.930;2023-04-25T09:36:30;100046.65;;;13.31;55.79
77017;BME280;65949;53.132;17.930;2023-04-25T09:39:02;100048.13;;;13.45;54.21
77017;BME280;65949;53.132;17.930;2023-04-25T09:41:37;100049.35;;;13.33;53.88
77017;BME280;65949;53.132;17.930;2023-04-25T09:44:04;100051.16;;;13.19;54.12
77017;BME280;65949;53.132;17.930;2023-04-25T09:46:34;100051.96;;;13.15;54.20
77017;BME280;65949;53.132;17.930;2023-04-25T09:49:07;100055.33;;;13.08;54.81
77017;BME280;65949;53.132;17.930;2023-04-25T09:51:40;100060.52;;;13.06;54.89
77017;BME280;65949;53.132;17.930;2023-04-25T09:54:07;100060.73;;;13.13;55.26
77017;BME280;65949;53.132;17.930;2023-04-25T09:56:45;100063.40;;;13.20;54.51
77017;BME280;65949;53.132;17.930;2023-04-25T09:59:15;100071.05;;;13.00;54.45
77017;BME280;65949;53.132;17.930;2023-04-25T10:01:42;100069.86;;;13.00;54.24
77017;BME280;65949;53.132;17.930;2023-04-25T10:04:18;100075.13;;;13.02;54.56
77017;BME280;65949;53.132;17.930;2023-04-25T10:07:08;100073.73;;;12.98;55.03
77017;BME280;65949;53.132;17.930;2023-04-25T10:09:37;100077.06;;;13.09;55.14
77017;BME280;65949;53.132;17.930;2023-04-25T10:12:07;100076.86;;;13.04;54.59
77017;BME280;65949;53.132;17.930;2023-04-25T10:14:34;100075.41;;;12.97;55.39
77017;BME280;65949;53.132;17.930;2023-04-25T10:17:01;100078.85;;;13.05;55.65
77017;BME280;65949;53.132;17.930;2023-04-25T10:19:29;100077.11;;;13.12;55.64
77017;BME280;65949;53.132;17.930;2023-04-25T10:22:04;100082.73;;;13.15;54.89
77017;BME280;65949;53.132;17.930;2023-04-25T10:24:32;100083.06;;;13.10;54.61
77017;BME280;65949;53.132;17.930;2023-04-25T10:26:59;100077.12;;;13.17;55.21
77017;BME280;65949;53.132;17.930;2023-04-25T10:29:26;100078.11;;;13.36;54.93
77017;BME280;65949;53.132;17.930;2023-04-25T10:31:53;100077.62;;;13.47;54.35
77017;BME280;65949;53.132;17.930;2023-04-25T10:34:24;100077.84;;;13.50;54.57
77017;BME280;65949;53.132;17.930;2023-04-25T10:36:52;100082.73;;;13.56;53.75
77017;BME280;65949;53.132;17.930;2023-04-25T10:39:24;100084.11;;;13.54;53.31
77017;BME280;65949;53.132;17.930;2023-04-25T10:41:58;100081.88;;;13.50;53.03
77017;BME280;65949;53.132;17.930;2023-04-25T10:44:29;100080.47;;;13.42;52.94
77017;BME280;65949;53.132;17.930;2023-04-25T10:46:57;100079.52;;;13.33;53.72
77017;BME280;65949;53.132;17.930;2023-04-25T10:49:35;100077.06;;;13.25;53.58
77017;BME280;65949;53.132;17.930;2023-04-25T10:54:52;100079.52;;;13.20;53.52
77017;BME280;65949;53.132;17.930;2023-04-25T10:57:29;100080.42;;;13.19;53.25
77017;BME280;65949;53.132;17.930;2023-04-25T11:00:10;100082.54;;;13.18;53.16
77017;BME280;65949;53.132;17.930;2023-04-25T11:02:41;100081.70;;;13.10;53.36
77017;BME280;65949;53.132;17.930;2023-04-25T11:05:09;100081.56;;;13.05;53.54
77017;BME280;65949;53.132;17.930;2023-04-25T11:10:18;100082.54;;;13.09;53.89
77017;BME280;65949;53.132;17.930;2023-04-25T11:12:46;100082.81;;;13.09;53.53
77017;BME280;65949;53.132;17.930;2023-04-25T11:15:13;100091.13;;;12.87;53.09
77017;BME280;65949;53.132;17.930;2023-04-25T11:17:40;100092.89;;;12.61;54.10
77017;BME280;65949;53.132;17.930;2023-04-25T11:20:07;100096.89;;;12.45;54.35
77017;BME280;65949;53.132;17.930;2023-04-25T11:22:38;100096.48;;;12.33;54.80
77017;BME280;65949;53.132;17.930;2023-04-25T11:25:08;100096.60;;;12.32;54.75
77017;BME280;65949;53.132;17.930;2023-04-25T11:30:16;100099.23;;;12.51;55.31
77017;BME280;65949;53.132;17.930;2023-04-25T11:32:43;100094.80;;;12.63;55.05
77017;BME280;65949;53.132;17.930;2023-04-25T11:35:11;100094.02;;;12.76;54.34
77017;BME280;65949;53.132;17.930;2023-04-25T11:37:42;100091.65;;;12.82;54.43
77017;BME280;65949;53.132;17.930;2023-04-25T11:40:10;100091.81;;;12.91;54.23
77017;BME280;65949;53.132;17.930;2023-04-25T11:42:38;100093.29;;;13.01;54.38
77017;BME280;65949;53.132;17.930;2023-04-25T11:45:06;100093.08;;;13.05;53.76
77017;BME280;65949;53.132;17.930;2023-04-25T11:47:33;100096.42;;;13.00;54.14
77017;BME280;65949;53.132;17.930;2023-04-25T11:50:06;100096.97;;;12.98;53.46
77017;BME280;65949;53.132;17.930;2023-04-25T11:52:41;100102.80;;;12.91;53.69
77017;BME280;65949;53.132;17.930;2023-04-25T11:55:18;100098.96;;;13.02;54.21
77017;BME280;65949;53.132;17.930;2023-04-25T11:57:48;100098.89;;;13.27;53.60
77017;BME280;65949;53.132;17.930;2023-04-25T12:00:17;100095.75;;;13.46;52.00
77017;BME280;65949;53.132;17.930;2023-04-25T12:02:47;100102.92;;;13.60;51.07
77017;BME280;65949;53.132;17.930;2023-04-25T12:05:15;100106.05;;;13.73;50.81
77017;BME280;65949;53.132;17.930;2023-04-25T12:07:43;100107.47;;;13.87;51.33
77017;BME280;65949;53.132;17.930;2023-04-25T12:10:17;100103.56;;;13.99;50.44
77017;BME280;65949;53.132;17.930;2023-04-25T12:12:46;100099.64;;;13.99;50.44
77017;BME280;65949;53.132;17.930;2023-04-25T12:15:17;100104.67;;;14.02;50.98
77017;BME280;65949;53.132;17.930;2023-04-25T12:17:50;100101.52;;;14.12;50.66
77017;BME280;65949;53.132;17.930;2023-04-25T12:20:21;100104.98;;;14.15;50.28
77017;BME280;65949;53.132;17.930;2023-04-25T12:22:50;100104.16;;;14.18;50.38
77017;BME280;65949;53.132;17.930;2023-04-25T12:25:37;100102.30;;;14.19;50.62
77017;BME280;65949;53.132;17.930;2023-04-25T12:28:21;100101.44;;;14.27;50.38
77017;BME280;65949;53.132;17.930;2023-04-25T12:31:00;100100.27;;;14.33;50.12
77017;BME280;65949;53.132;17.930;2023-04-25T12:33:32;100100.33;;;14.37;50.46
77017;BME280;65949;53.132;17.930;2023-04-25T12:36:00;100099.30;;;14.44;50.27
77017;BME280;65949;53.132;17.930;2023-04-25T12:38:31;100100.98;;;14.46;50.23
77017;BME280;65949;53.132;17.930;2023-04-25T12:40:58;100104.27;;;14.48;49.96
77017;BME280;65949;53.132;17.930;2023-04-25T12:43:24;100108.98;;;14.62;49.69
77017;BME280;65949;53.132;17.930;2023-04-25T12:45:53;100110.63;;;14.67;48.79
77017;BME280;65949;53.132;17.930;2023-04-25T12:48:20;100106.98;;;14.50;48.81
77017;BME280;65949;53.132;17.930;2023-04-25T12:50:48;100103.64;;;14.36;50.06
77017;BME280;65949;53.132;17.930;2023-04-25T12:53:20;100103.27;;;14.43;49.35
77017;BME280;65949;53.132;17.930;2023-04-25T12:55:47;100104.61;;;14.44;49.98
77017;BME280;65949;53.132;17.930;2023-04-25T12:58:16;100101.11;;;14.45;49.56
77017;BME280;65949;53.132;17.930;2023-04-25T13:00:44;100101.08;;;14.30;49.33
77017;BME280;65949;53.132;17.930;2023-04-25T13:03:11;100094.16;;;14.09;49.53
77017;BME280;65949;53.132;17.930;2023-04-25T13:05:38;100095.92;;;13.89;49.66
77017;BME280;65949;53.132;17.930;2023-04-25T13:08:06;100098.08;;;13.62;50.25
77017;BME280;65949;53.132;17.930;2023-04-25T13:10:32;100092.84;;;13.41;50.87
77017;BME280;65949;53.132;17.930;2023-04-25T13:13:00;100094.86;;;13.35;51.59
77017;BME280;65949;53.132;17.930;2023-04-25T13:15:27;100100.89;;;13.32;51.53
77017;BME280;65949;53.132;17.930;2023-04-25T13:17:54;100102.83;;;13.15;52.19
77017;BME280;65949;53.132;17.930;2023-04-25T13:20:20;100095.94;;;12.97;52.45